Check out our new BloomSky Weather System.

Active alerts

Houston, TX
  Details for Houston, TX River Flood Warning  +1 additional alert
Fort Bend, TX
  Details for Fort Bend, TX River Flood Warning  +2 additional alerts


Thunder radar  blitzortung!


Rain radar more information rain snow radar


Visit our other weather sites:

Template documentation
and downloads

And another site



Weather Underground History page Text

Daily Summary for February 13, 2018 Units:  Both    English   Metric
« Previous Day
Next Day »
Daily Weekly Monthly Yearly Custom
  High: Low: Average:
Temperature: TemperatureF °F /  -17.8 °C 43.0 °F /  6.1 °C 46.5 °F /  8.1 °C
Dew Point: DewpointF °F /  -17.8 °C 41.4 °F /  5.2 °C 45.6 °F /  7.6 °C
Humidity: Humidity % 93 % 96 %
Wind Speed: WindSpeedMPH mph /  0 km/h - 0.8 mph /  1.3 km/h
Wind Gust: WindSpeedGustMPH mph /  0 km/h - -
Wind:- - South
Pressure: PressureIn in /  0 hPa 30.34 in /  1027.3 hPa -
Precipitation: 0.10 in /  2.54 mm    
Historical Graphs
 
 
Tabular Data for February 13, 2018
Time Temperature Dew Point Pressure Wind Wind Speed Wind Gust Humidity Rainfall Rate (Hourly)
TemperatureF °F /  -17.8 °C DewpointF °F /  -17.8 °C PressureIn in /  0 hPa Calm     Humidity % HourlyPrecipIn in /  0 mm
00:04 43.5 °F /  6.4 °C 41.9 °F /  5.5 °C 30.38 in /  1028.7 hPa NNW 1.0 mph /  1.6 km/h 3.0 mph /  4.8 km/h 94 % 0.00 in /  0 mm
00:09 43.3 °F /  6.3 °C 41.7 °F /  5.4 °C 30.38 in /  1028.7 hPa Calm   3.0 mph /  4.8 km/h 94 % 0.00 in /  0 mm
00:14 43.3 °F /  6.3 °C 41.7 °F /  5.4 °C 30.38 in /  1028.7 hPa East 2.0 mph /  3.2 km/h 3.0 mph /  4.8 km/h 94 % 0.00 in /  0 mm
00:19 43.3 °F /  6.3 °C 41.7 °F /  5.4 °C 30.38 in /  1028.7 hPa North 2.0 mph /  3.2 km/h 4.0 mph /  6.4 km/h 94 % 0.00 in /  0 mm
00:24 43.2 °F /  6.2 °C 41.5 °F /  5.3 °C 30.38 in /  1028.7 hPa North 1.0 mph /  1.6 km/h 4.0 mph /  6.4 km/h 94 % 0.00 in /  0 mm
00:29 43.2 °F /  6.2 °C 41.5 °F /  5.3 °C 30.38 in /  1028.7 hPa North 1.0 mph /  1.6 km/h 5.0 mph /  8 km/h 94 % 0.00 in /  0 mm
00:34 43.3 °F /  6.3 °C 41.7 °F /  5.4 °C 30.39 in /  1029 hPa Calm   5.0 mph /  8 km/h 94 % 0.00 in /  0 mm
00:39 43.3 °F /  6.3 °C 41.7 °F /  5.4 °C 30.39 in /  1029 hPa Calm   5.0 mph /  8 km/h 94 % 0.00 in /  0 mm
00:44 43.3 °F /  6.3 °C 41.7 °F /  5.4 °C 30.39 in /  1029 hPa NNE 2.0 mph /  3.2 km/h 3.0 mph /  4.8 km/h 94 % 0.00 in /  0 mm
00:49 43.3 °F /  6.3 °C 41.7 °F /  5.4 °C 30.39 in /  1029 hPa Calm   2.0 mph /  3.2 km/h 94 % 0.00 in /  0 mm
00:54 43.3 °F /  6.3 °C 41.7 °F /  5.4 °C 30.39 in /  1029 hPa Calm   2.0 mph /  3.2 km/h 94 % 0.00 in /  0 mm
00:59 43.2 °F /  6.2 °C 41.5 °F /  5.3 °C 30.39 in /  1029 hPa Calm   3.0 mph /  4.8 km/h 94 % 0.00 in /  0 mm
01:04 43.2 °F /  6.2 °C 41.4 °F /  5.2 °C 30.39 in /  1029 hPa Calm   3.0 mph /  4.8 km/h 93 % 0.00 in /  0 mm
01:09 43.2 °F /  6.2 °C 41.4 °F /  5.2 °C 30.38 in /  1028.7 hPa North 5.0 mph /  8 km/h 5.0 mph /  8 km/h 93 % 0.00 in /  0 mm
01:14 43.2 °F /  6.2 °C 41.4 °F /  5.2 °C 30.38 in /  1028.7 hPa NNE 1.0 mph /  1.6 km/h 6.0 mph /  9.7 km/h 93 % 0.00 in /  0 mm
01:19 43.2 °F /  6.2 °C 41.4 °F /  5.2 °C 30.39 in /  1029 hPa Calm   6.0 mph /  9.7 km/h 93 % 0.00 in /  0 mm
01:24 43.3 °F /  6.3 °C 41.5 °F /  5.3 °C 30.38 in /  1028.7 hPa Calm   6.0 mph /  9.7 km/h 93 % 0.00 in /  0 mm
01:29 43.3 °F /  6.3 °C 41.5 °F /  5.3 °C 30.38 in /  1028.7 hPa NNE 2.0 mph /  3.2 km/h 3.0 mph /  4.8 km/h 93 % 0.00 in /  0 mm
01:34 43.3 °F /  6.3 °C 41.5 °F /  5.3 °C 30.38 in /  1028.7 hPa NE 2.0 mph /  3.2 km/h 3.0 mph /  4.8 km/h 93 % 0.00 in /  0 mm
01:39 43.3 °F /  6.3 °C 41.5 °F /  5.3 °C 30.38 in /  1028.7 hPa NNW 5.0 mph /  8 km/h 5.0 mph /  8 km/h 93 % 0.00 in /  0 mm
01:44 43.3 °F /  6.3 °C 41.5 °F /  5.3 °C 30.37 in /  1028.3 hPa NE 3.0 mph /  4.8 km/h 5.0 mph /  8 km/h 93 % 0.00 in /  0 mm
01:49 43.3 °F /  6.3 °C 41.5 °F /  5.3 °C 30.37 in /  1028.3 hPa North 1.0 mph /  1.6 km/h 5.0 mph /  8 km/h 93 % 0.00 in /  0 mm
01:54 43.3 °F /  6.3 °C 41.5 °F /  5.3 °C 30.38 in /  1028.7 hPa NW 1.0 mph /  1.6 km/h 5.0 mph /  8 km/h 93 % 0.00 in /  0 mm
01:59 43.3 °F /  6.3 °C 41.5 °F /  5.3 °C 30.38 in /  1028.7 hPa NNW 1.0 mph /  1.6 km/h 5.0 mph /  8 km/h 93 % 0.00 in /  0 mm
02:04 43.3 °F /  6.3 °C 41.5 °F /  5.3 °C 30.38 in /  1028.7 hPa NW 2.0 mph /  3.2 km/h 3.0 mph /  4.8 km/h 93 % 0.00 in /  0 mm
02:09 43.3 °F /  6.3 °C 41.5 °F /  5.3 °C 30.38 in /  1028.7 hPa Calm   4.0 mph /  6.4 km/h 93 % 0.00 in /  0 mm
02:14 43.3 °F /  6.3 °C 41.5 °F /  5.3 °C 30.38 in /  1028.7 hPa Calm   4.0 mph /  6.4 km/h 93 % 0.00 in /  0 mm
02:19 43.3 °F /  6.3 °C 41.5 °F /  5.3 °C 30.38 in /  1028.7 hPa Calm   4.0 mph /  6.4 km/h 93 % 0.00 in /  0 mm
02:24 43.3 °F /  6.3 °C 41.5 °F /  5.3 °C 30.38 in /  1028.7 hPa East 1.0 mph /  1.6 km/h 2.0 mph /  3.2 km/h 93 % 0.00 in /  0 mm
02:29 43.3 °F /  6.3 °C 41.5 °F /  5.3 °C 30.38 in /  1028.7 hPa Calm   2.0 mph /  3.2 km/h 93 % 0.00 in /  0 mm
02:34 43.3 °F /  6.3 °C 41.5 °F /  5.3 °C 30.38 in /  1028.7 hPa North 1.0 mph /  1.6 km/h 1.0 mph /  1.6 km/h 93 % 0.00 in /  0 mm
02:39 43.3 °F /  6.3 °C 41.5 °F /  5.3 °C 30.38 in /  1028.7 hPa NNE 1.0 mph /  1.6 km/h 2.0 mph /  3.2 km/h 93 % 0.00 in /  0 mm
02:44 43.3 °F /  6.3 °C 41.5 °F /  5.3 °C 30.37 in /  1028.3 hPa Calm   2.0 mph /  3.2 km/h 93 % 0.00 in /  0 mm
02:49 43.3 °F /  6.3 °C 41.5 °F /  5.3 °C 30.37 in /  1028.3 hPa East 2.0 mph /  3.2 km/h 2.0 mph /  3.2 km/h 93 % 0.00 in /  0 mm
02:54 43.5 °F /  6.4 °C 41.7 °F /  5.4 °C 30.37 in /  1028.3 hPa Calm   2.0 mph /  3.2 km/h 93 % 0.00 in /  0 mm
02:59 43.3 °F /  6.3 °C 41.5 °F /  5.3 °C 30.37 in /  1028.3 hPa Calm   2.0 mph /  3.2 km/h 93 % 0.00 in /  0 mm
03:04 43.5 °F /  6.4 °C 41.7 °F /  5.4 °C 30.37 in /  1028.3 hPa NNE 1.0 mph /  1.6 km/h 2.0 mph /  3.2 km/h 93 % 0.00 in /  0 mm
03:09 43.3 °F /  6.3 °C 41.5 °F /  5.3 °C 30.37 in /  1028.3 hPa Calm   2.0 mph /  3.2 km/h 93 % 0.00 in /  0 mm
03:14 43.3 °F /  6.3 °C 41.5 °F /  5.3 °C 30.36 in /  1028 hPa NE 1.0 mph /  1.6 km/h 3.0 mph /  4.8 km/h 93 % 0.00 in /  0 mm
03:19 43.3 °F /  6.3 °C 41.5 °F /  5.3 °C 30.36 in /  1028 hPa NE 3.0 mph /  4.8 km/h 4.0 mph /  6.4 km/h 93 % 0.00 in /  0 mm
03:24 43.3 °F /  6.3 °C 41.5 °F /  5.3 °C 30.36 in /  1028 hPa ENE 2.0 mph /  3.2 km/h 4.0 mph /  6.4 km/h 93 % 0.00 in /  0 mm
03:29 43.2 °F /  6.2 °C 41.4 °F /  5.2 °C 30.35 in /  1027.7 hPa Calm   4.0 mph /  6.4 km/h 93 % 0.00 in /  0 mm
03:34 43.2 °F /  6.2 °C 41.4 °F /  5.2 °C 30.35 in /  1027.7 hPa ENE 2.0 mph /  3.2 km/h 4.0 mph /  6.4 km/h 93 % 0.00 in /  0 mm
03:39 43.2 °F /  6.2 °C 41.4 °F /  5.2 °C 30.35 in /  1027.7 hPa NE 5.0 mph /  8 km/h 5.0 mph /  8 km/h 93 % 0.00 in /  0 mm
03:44 43.2 °F /  6.2 °C 41.4 °F /  5.2 °C 30.35 in /  1027.7 hPa ENE 2.0 mph /  3.2 km/h 6.0 mph /  9.7 km/h 93 % 0.00 in /  0 mm
03:49 43.2 °F /  6.2 °C 41.4 °F /  5.2 °C 30.35 in /  1027.7 hPa Calm   6.0 mph /  9.7 km/h 93 % 0.00 in /  0 mm
03:54 43.2 °F /  6.2 °C 41.4 °F /  5.2 °C 30.36 in /  1028 hPa North 1.0 mph /  1.6 km/h 6.0 mph /  9.7 km/h 93 % 0.00 in /  0 mm
03:59 43.2 °F /  6.2 °C 41.4 °F /  5.2 °C 30.36 in /  1028 hPa Calm   5.0 mph /  8 km/h 93 % 0.00 in /  0 mm
04:04 43.2 °F /  6.2 °C 41.4 °F /  5.2 °C 30.37 in /  1028.3 hPa Calm   5.0 mph /  8 km/h 93 % 0.00 in /  0 mm
04:09 43.2 °F /  6.2 °C 41.4 °F /  5.2 °C 30.37 in /  1028.3 hPa NW 1.0 mph /  1.6 km/h 3.0 mph /  4.8 km/h 93 % 0.00 in /  0 mm
04:14 43.2 °F /  6.2 °C 41.4 °F /  5.2 °C 30.37 in /  1028.3 hPa Calm   3.0 mph /  4.8 km/h 93 % 0.00 in /  0 mm
04:19 43.2 °F /  6.2 °C 41.4 °F /  5.2 °C 30.37 in /  1028.3 hPa NW 1.0 mph /  1.6 km/h 4.0 mph /  6.4 km/h 93 % 0.00 in /  0 mm
04:24 43.2 °F /  6.2 °C 41.4 °F /  5.2 °C 30.38 in /  1028.7 hPa Calm   4.0 mph /  6.4 km/h 93 % 0.00 in /  0 mm
04:29 43.2 °F /  6.2 °C 41.4 °F /  5.2 °C 30.39 in /  1029 hPa Calm   4.0 mph /  6.4 km/h 93 % 0.00 in /  0 mm
04:34 43.3 °F /  6.3 °C 41.5 °F /  5.3 °C 30.39 in /  1029 hPa North 1.0 mph /  1.6 km/h 3.0 mph /  4.8 km/h 93 % 0.00 in /  0 mm
04:39 43.3 °F /  6.3 °C 41.5 °F /  5.3 °C 30.38 in /  1028.7 hPa NNE 2.0 mph /  3.2 km/h 3.0 mph /  4.8 km/h 93 % 0.00 in /  0 mm
04:44 43.3 °F /  6.3 °C 41.5 °F /  5.3 °C 30.38 in /  1028.7 hPa NNW 1.0 mph /  1.6 km/h 3.0 mph /  4.8 km/h 93 % 0.00 in /  0 mm
04:50 43.3 °F /  6.3 °C 41.5 °F /  5.3 °C 30.38 in /  1028.7 hPa Calm   3.0 mph /  4.8 km/h 93 % 0.00 in /  0 mm
04:55 43.3 °F /  6.3 °C 41.5 °F /  5.3 °C 30.38 in /  1028.7 hPa Calm   3.0 mph /  4.8 km/h 93 % 0.00 in /  0 mm
05:00 43.3 °F /  6.3 °C 41.5 °F /  5.3 °C 30.38 in /  1028.7 hPa NW 1.0 mph /  1.6 km/h 3.0 mph /  4.8 km/h 93 % 0.00 in /  0 mm
05:05 43.3 °F /  6.3 °C 41.7 °F /  5.4 °C 30.38 in /  1028.7 hPa NW 2.0 mph /  3.2 km/h 3.0 mph /  4.8 km/h 94 % 0.00 in /  0 mm
05:10 43.3 °F /  6.3 °C 41.7 °F /  5.4 °C 30.38 in /  1028.7 hPa Calm   2.0 mph /  3.2 km/h 94 % 0.00 in /  0 mm
05:15 43.3 °F /  6.3 °C 41.7 °F /  5.4 °C 30.38 in /  1028.7 hPa Calm   3.0 mph /  4.8 km/h 94 % 0.00 in /  0 mm
05:20 43.3 °F /  6.3 °C 41.7 °F /  5.4 °C 30.38 in /  1028.7 hPa Calm   4.0 mph /  6.4 km/h 94 % 0.00 in /  0 mm
05:25 43.3 °F /  6.3 °C 41.7 °F /  5.4 °C 30.38 in /  1028.7 hPa Calm   4.0 mph /  6.4 km/h 94 % 0.00 in /  0 mm
05:30 43.2 °F /  6.2 °C 41.5 °F /  5.3 °C 30.37 in /  1028.3 hPa NNE 1.0 mph /  1.6 km/h 4.0 mph /  6.4 km/h 94 % 0.00 in /  0 mm
05:35 43.2 °F /  6.2 °C 41.5 °F /  5.3 °C 30.37 in /  1028.3 hPa NNE 1.0 mph /  1.6 km/h 4.0 mph /  6.4 km/h 94 % 0.00 in /  0 mm
05:40 43.2 °F /  6.2 °C 41.5 °F /  5.3 °C 30.36 in /  1028 hPa NNE 2.0 mph /  3.2 km/h 5.0 mph /  8 km/h 94 % 0.00 in /  0 mm
05:45 43.2 °F /  6.2 °C 41.5 °F /  5.3 °C 30.37 in /  1028.3 hPa NW 1.0 mph /  1.6 km/h 6.0 mph /  9.7 km/h 94 % 0.00 in /  0 mm
05:50 43.2 °F /  6.2 °C 41.5 °F /  5.3 °C 30.38 in /  1028.7 hPa North 2.0 mph /  3.2 km/h 6.0 mph /  9.7 km/h 94 % 0.00 in /  0 mm
05:55 43.2 °F /  6.2 °C 41.5 °F /  5.3 °C 30.38 in /  1028.7 hPa WNW 1.0 mph /  1.6 km/h 5.0 mph /  8 km/h 94 % 0.00 in /  0 mm
06:00 43.0 °F /  6.1 °C 41.4 °F /  5.2 °C 30.40 in /  1029.3 hPa NW 1.0 mph /  1.6 km/h 5.0 mph /  8 km/h 94 % 0.00 in /  0 mm
06:05 43.0 °F /  6.1 °C 41.7 °F /  5.4 °C 30.39 in /  1029 hPa Calm   5.0 mph /  8 km/h 95 % 0.00 in /  0 mm
06:10 43.2 °F /  6.2 °C 41.9 °F /  5.5 °C 30.39 in /  1029 hPa NNW 1.0 mph /  1.6 km/h 4.0 mph /  6.4 km/h 95 % 0.00 in /  0 mm
06:15 43.2 °F /  6.2 °C 41.9 °F /  5.5 °C 30.38 in /  1028.7 hPa Calm   4.0 mph /  6.4 km/h 95 % 0.00 in /  0 mm
06:20 43.2 °F /  6.2 °C 41.9 °F /  5.5 °C 30.40 in /  1029.3 hPa Calm   3.0 mph /  4.8 km/h 95 % 0.00 in /  0 mm
06:25 43.2 °F /  6.2 °C 41.9 °F /  5.5 °C 30.38 in /  1028.7 hPa North 1.0 mph /  1.6 km/h 3.0 mph /  4.8 km/h 95 % 0.00 in /  0 mm
06:30 43.2 °F /  6.2 °C 41.9 °F /  5.5 °C 30.39 in /  1029 hPa NNW 2.0 mph /  3.2 km/h 3.0 mph /  4.8 km/h 95 % 0.00 in /  0 mm
06:35 43.2 °F /  6.2 °C 41.9 °F /  5.5 °C 30.39 in /  1029 hPa Calm   3.0 mph /  4.8 km/h 95 % 0.00 in /  0 mm
06:40 43.2 °F /  6.2 °C 41.9 °F /  5.5 °C 30.40 in /  1029.3 hPa Calm   3.0 mph /  4.8 km/h 95 % 0.00 in /  0 mm
06:45 43.2 °F /  6.2 °C 41.9 °F /  5.5 °C 30.40 in /  1029.3 hPa NW 1.0 mph /  1.6 km/h 3.0 mph /  4.8 km/h 95 % 0.00 in /  0 mm
06:50 43.2 °F /  6.2 °C 41.9 °F /  5.5 °C 30.40 in /  1029.3 hPa NNW 3.0 mph /  4.8 km/h 3.0 mph /  4.8 km/h 95 % 0.00 in /  0 mm
06:55 43.2 °F /  6.2 °C 41.9 °F /  5.5 °C 30.40 in /  1029.3 hPa NNW 2.0 mph /  3.2 km/h 3.0 mph /  4.8 km/h 95 % 0.00 in /  0 mm
07:00 43.2 °F /  6.2 °C 41.9 °F /  5.5 °C 30.40 in /  1029.3 hPa NW 1.0 mph /  1.6 km/h 3.0 mph /  4.8 km/h 95 % 0.00 in /  0 mm
07:05 43.3 °F /  6.3 °C 42.1 °F /  5.6 °C 30.40 in /  1029.3 hPa NNW 1.0 mph /  1.6 km/h 3.0 mph /  4.8 km/h 95 % 0.00 in /  0 mm
07:10 43.3 °F /  6.3 °C 42.1 °F /  5.6 °C 30.39 in /  1029 hPa North 1.0 mph /  1.6 km/h 3.0 mph /  4.8 km/h 95 % 0.00 in /  0 mm
07:15 43.3 °F /  6.3 °C 42.1 °F /  5.6 °C 30.39 in /  1029 hPa Calm   5.0 mph /  8 km/h 95 % 0.00 in /  0 mm
07:20 43.3 °F /  6.3 °C 42.1 °F /  5.6 °C 30.40 in /  1029.3 hPa Calm   5.0 mph /  8 km/h 95 % 0.00 in /  0 mm
07:25 43.3 °F /  6.3 °C 42.1 °F /  5.6 °C 30.40 in /  1029.3 hPa NNE 3.0 mph /  4.8 km/h 5.0 mph /  8 km/h 95 % 0.00 in /  0 mm
07:30 43.3 °F /  6.3 °C 42.3 °F /  5.7 °C 30.40 in /  1029.3 hPa NNW 1.0 mph /  1.6 km/h 4.0 mph /  6.4 km/h 96 % 0.00 in /  0 mm
07:35 43.3 °F /  6.3 °C 42.3 °F /  5.7 °C 30.40 in /  1029.3 hPa Calm   4.0 mph /  6.4 km/h 96 % 0.00 in /  0 mm
07:40 43.3 °F /  6.3 °C 42.3 °F /  5.7 °C 30.40 in /  1029.3 hPa NW 1.0 mph /  1.6 km/h 4.0 mph /  6.4 km/h 96 % 0.00 in /  0 mm
07:45 43.3 °F /  6.3 °C 42.3 °F /  5.7 °C 30.40 in /  1029.3 hPa NW 1.0 mph /  1.6 km/h 4.0 mph /  6.4 km/h 96 % 0.00 in /  0 mm
07:46 43.3 °F /  6.3 °C 42.3 °F /  5.7 °C 30.40 in /  1029.3 hPa North 2.0 mph /  3.2 km/h 4.0 mph /  6.4 km/h 96 % 0.00 in /  0 mm
07:51 43.3 °F /  6.3 °C 42.3 °F /  5.7 °C 30.41 in /  1029.7 hPa Calm   5.0 mph /  8 km/h 96 % 0.00 in /  0 mm
07:56 43.3 °F /  6.3 °C 42.3 °F /  5.7 °C 30.42 in /  1030 hPa North 1.0 mph /  1.6 km/h 5.0 mph /  8 km/h 96 % 0.00 in /  0 mm
08:01 43.5 °F /  6.4 °C 42.4 °F /  5.8 °C 30.41 in /  1029.7 hPa Calm   5.0 mph /  8 km/h 96 % 0.00 in /  0 mm
08:06 43.5 °F /  6.4 °C 42.4 °F /  5.8 °C 30.42 in /  1030 hPa Calm   4.0 mph /  6.4 km/h 96 % 0.00 in /  0 mm
08:11 43.5 °F /  6.4 °C 42.4 °F /  5.8 °C 30.42 in /  1030 hPa Calm   4.0 mph /  6.4 km/h 96 % 0.00 in /  0 mm
08:16 43.7 °F /  6.5 °C 42.6 °F /  5.9 °C 30.42 in /  1030 hPa ENE 3.0 mph /  4.8 km/h 4.0 mph /  6.4 km/h 96 % 0.00 in /  0 mm
08:21 43.7 °F /  6.5 °C 42.6 °F /  5.9 °C 30.41 in /  1029.7 hPa ENE 3.0 mph /  4.8 km/h 6.0 mph /  9.7 km/h 96 % 0.00 in /  0 mm
08:26 43.7 °F /  6.5 °C 42.6 °F /  5.9 °C 30.41 in /  1029.7 hPa ENE 2.0 mph /  3.2 km/h 6.0 mph /  9.7 km/h 96 % 0.00 in /  0 mm
08:31 43.7 °F /  6.5 °C 42.6 °F /  5.9 °C 30.41 in /  1029.7 hPa ENE 3.0 mph /  4.8 km/h 6.0 mph /  9.7 km/h 96 % 0.00 in /  0 mm
08:36 43.7 °F /  6.5 °C 42.6 °F /  5.9 °C 30.40 in /  1029.3 hPa Calm   6.0 mph /  9.7 km/h 96 % 0.00 in /  0 mm
08:41 43.7 °F /  6.5 °C 42.6 °F /  5.9 °C 30.40 in /  1029.3 hPa Calm   6.0 mph /  9.7 km/h 96 % 0.00 in /  0 mm
08:46 43.7 °F /  6.5 °C 42.6 °F /  5.9 °C 30.40 in /  1029.3 hPa NE 1.0 mph /  1.6 km/h 6.0 mph /  9.7 km/h 96 % 0.00 in /  0 mm
08:51 43.7 °F /  6.5 °C 42.6 °F /  5.9 °C 30.41 in /  1029.7 hPa NNE 2.0 mph /  3.2 km/h 6.0 mph /  9.7 km/h 96 % 0.00 in /  0 mm
08:56 43.9 °F /  6.6 °C 42.8 °F /  6 °C 30.41 in /  1029.7 hPa ENE 2.0 mph /  3.2 km/h 6.0 mph /  9.7 km/h 96 % 0.00 in /  0 mm
09:01 43.9 °F /  6.6 °C 42.8 °F /  6 °C 30.40 in /  1029.3 hPa NNW 2.0 mph /  3.2 km/h 6.0 mph /  9.7 km/h 96 % 0.00 in /  0 mm
09:06 44.1 °F /  6.7 °C 43.0 °F /  6.1 °C 30.41 in /  1029.7 hPa NE 2.0 mph /  3.2 km/h 5.0 mph /  8 km/h 96 % 0.00 in /  0 mm
09:11 44.1 °F /  6.7 °C 43.0 °F /  6.1 °C 30.42 in /  1030 hPa ENE 1.0 mph /  1.6 km/h 6.0 mph /  9.7 km/h 96 % 0.00 in /  0 mm
09:16 44.1 °F /  6.7 °C 43.3 °F /  6.3 °C 30.42 in /  1030 hPa North 3.0 mph /  4.8 km/h 6.0 mph /  9.7 km/h 97 % 0.00 in /  0 mm
09:21 44.2 °F /  6.8 °C 43.5 °F /  6.4 °C 30.43 in /  1030.4 hPa NNW 5.0 mph /  8 km/h 6.0 mph /  9.7 km/h 97 % 0.00 in /  0 mm
09:26 44.2 °F /  6.8 °C 43.2 °F /  6.2 °C 30.43 in /  1030.4 hPa NW 1.0 mph /  1.6 km/h 5.0 mph /  8 km/h 96 % 0.00 in /  0 mm
09:31 44.2 °F /  6.8 °C 43.2 °F /  6.2 °C 30.43 in /  1030.4 hPa NNW 3.0 mph /  4.8 km/h 5.0 mph /  8 km/h 96 % 0.00 in /  0 mm
09:36 44.2 °F /  6.8 °C 43.5 °F /  6.4 °C 30.43 in /  1030.4 hPa NW 1.0 mph /  1.6 km/h 5.0 mph /  8 km/h 97 % 0.00 in /  0 mm
09:41 44.2 °F /  6.8 °C 43.5 °F /  6.4 °C 30.43 in /  1030.4 hPa NW 1.0 mph /  1.6 km/h 4.0 mph /  6.4 km/h 97 % 0.00 in /  0 mm
09:46 44.2 °F /  6.8 °C 43.5 °F /  6.4 °C 30.44 in /  1030.7 hPa Calm   4.0 mph /  6.4 km/h 97 % 0.00 in /  0 mm
09:51 44.2 °F /  6.8 °C 43.5 °F /  6.4 °C 30.45 in /  1031 hPa Calm   4.0 mph /  6.4 km/h 97 % 0.00 in /  0 mm
09:56 44.2 °F /  6.8 °C 43.5 °F /  6.4 °C 30.45 in /  1031 hPa Calm   3.0 mph /  4.8 km/h 97 % 0.00 in /  0 mm
10:01 44.2 °F /  6.8 °C 43.5 °F /  6.4 °C 30.45 in /  1031 hPa NNW 3.0 mph /  4.8 km/h 3.0 mph /  4.8 km/h 97 % 0.00 in /  0 mm
10:06 44.2 °F /  6.8 °C 43.5 °F /  6.4 °C 30.44 in /  1030.7 hPa NW 2.0 mph /  3.2 km/h 4.0 mph /  6.4 km/h 97 % 0.00 in /  0 mm
10:11 44.4 °F /  6.9 °C 43.7 °F /  6.5 °C 30.44 in /  1030.7 hPa Calm   4.0 mph /  6.4 km/h 97 % 0.00 in /  0 mm
10:16 44.4 °F /  6.9 °C 43.7 °F /  6.5 °C 30.45 in /  1031 hPa Calm   4.0 mph /  6.4 km/h 97 % 0.00 in /  0 mm
10:21 44.4 °F /  6.9 °C 43.7 °F /  6.5 °C 30.45 in /  1031 hPa North 1.0 mph /  1.6 km/h 3.0 mph /  4.8 km/h 97 % 0.01 in /  0.25 mm
10:26 44.4 °F /  6.9 °C 43.7 °F /  6.5 °C 30.45 in /  1031 hPa Calm   3.0 mph /  4.8 km/h 97 % 0.01 in /  0.25 mm
10:31 44.4 °F /  6.9 °C 43.7 °F /  6.5 °C 30.45 in /  1031 hPa NNW 3.0 mph /  4.8 km/h 3.0 mph /  4.8 km/h 97 % 0.01 in /  0.25 mm
10:36 44.8 °F /  7.1 °C 44.1 °F /  6.7 °C 30.44 in /  1030.7 hPa Calm   4.0 mph /  6.4 km/h 97 % 0.01 in /  0.25 mm
10:41 44.8 °F /  7.1 °C 44.1 °F /  6.7 °C 30.44 in /  1030.7 hPa NNW 1.0 mph /  1.6 km/h 4.0 mph /  6.4 km/h 97 % 0.01 in /  0.25 mm
10:46 44.8 °F /  7.1 °C 44.2 °F /  6.8 °C 30.44 in /  1030.7 hPa NE 1.0 mph /  1.6 km/h 4.0 mph /  6.4 km/h 98 % 0.02 in /  0.51 mm
10:51 44.8 °F /  7.1 °C 44.1 °F /  6.7 °C 30.43 in /  1030.4 hPa ENE 2.0 mph /  3.2 km/h 5.0 mph /  8 km/h 97 % 0.03 in /  0.76 mm
10:56 44.8 °F /  7.1 °C 44.2 °F /  6.8 °C 30.43 in /  1030.4 hPa Calm   5.0 mph /  8 km/h 98 % 0.04 in /  1.02 mm
11:01 44.8 °F /  7.1 °C 44.2 °F /  6.8 °C 30.42 in /  1030 hPa NNW 2.0 mph /  3.2 km/h 5.0 mph /  8 km/h 98 % 0.04 in /  1.02 mm
11:06 45.0 °F /  7.2 °C 44.4 °F /  6.9 °C 30.43 in /  1030.4 hPa ENE 2.0 mph /  3.2 km/h 4.0 mph /  6.4 km/h 98 % 0.05 in /  1.27 mm
11:11 45.0 °F /  7.2 °C 44.4 °F /  6.9 °C 30.43 in /  1030.4 hPa NNW 2.0 mph /  3.2 km/h 4.0 mph /  6.4 km/h 98 % 0.05 in /  1.27 mm
11:16 45.0 °F /  7.2 °C 44.4 °F /  6.9 °C 30.43 in /  1030.4 hPa Calm   4.0 mph /  6.4 km/h 98 % 0.05 in /  1.27 mm
11:21 45.1 °F /  7.3 °C 44.6 °F /  7 °C 30.44 in /  1030.7 hPa Calm   4.0 mph /  6.4 km/h 98 % 0.04 in /  1.02 mm
11:26 45.1 °F /  7.3 °C 44.6 °F /  7 °C 30.43 in /  1030.4 hPa Calm   4.0 mph /  6.4 km/h 98 % 0.04 in /  1.02 mm
11:31 45.3 °F /  7.4 °C 44.8 °F /  7.1 °C 30.43 in /  1030.4 hPa NNW 2.0 mph /  3.2 km/h 4.0 mph /  6.4 km/h 98 % 0.04 in /  1.02 mm
11:36 45.3 °F /  7.4 °C 44.8 °F /  7.1 °C 30.43 in /  1030.4 hPa Calm   4.0 mph /  6.4 km/h 98 % 0.05 in /  1.27 mm
11:41 45.1 °F /  7.3 °C 44.6 °F /  7 °C 30.43 in /  1030.4 hPa ENE 1.0 mph /  1.6 km/h 3.0 mph /  4.8 km/h 98 % 0.07 in /  1.78 mm
11:46 45.1 °F /  7.3 °C 44.6 °F /  7 °C 30.42 in /  1030 hPa NW 1.0 mph /  1.6 km/h 4.0 mph /  6.4 km/h 98 % 0.07 in /  1.78 mm
11:51 45.1 °F /  7.3 °C 44.6 °F /  7 °C 30.42 in /  1030 hPa NNE 1.0 mph /  1.6 km/h 4.0 mph /  6.4 km/h 98 % 0.06 in /  1.52 mm
11:56 45.3 °F /  7.4 °C 44.8 °F /  7.1 °C 30.42 in /  1030 hPa NW 2.0 mph /  3.2 km/h 4.0 mph /  6.4 km/h 98 % 0.05 in /  1.27 mm
12:01 45.3 °F /  7.4 °C 44.8 °F /  7.1 °C 30.42 in /  1030 hPa Calm   4.0 mph /  6.4 km/h 98 % 0.05 in /  1.27 mm
12:06 45.7 °F /  7.6 °C 45.1 °F /  7.3 °C 30.42 in /  1030 hPa Calm   4.0 mph /  6.4 km/h 98 % 0.04 in /  1.02 mm
12:11 45.7 °F /  7.6 °C 45.1 °F /  7.3 °C 30.43 in /  1030.4 hPa Calm   2.0 mph /  3.2 km/h 98 % 0.04 in /  1.02 mm
12:12 45.7 °F /  7.6 °C 45.1 °F /  7.3 °C 30.42 in /  1030 hPa Calm   2.0 mph /  3.2 km/h 98 % 0.04 in /  1.02 mm
12:17 45.9 °F /  7.7 °C 45.3 °F /  7.4 °C 30.42 in /  1030 hPa NNW 1.0 mph /  1.6 km/h 2.0 mph /  3.2 km/h 98 % 0.04 in /  1.02 mm
12:22 45.9 °F /  7.7 °C 45.3 °F /  7.4 °C 30.43 in /  1030.4 hPa Calm   3.0 mph /  4.8 km/h 98 % 0.04 in /  1.02 mm
12:27 45.9 °F /  7.7 °C 45.3 °F /  7.4 °C 30.42 in /  1030 hPa NNW 1.0 mph /  1.6 km/h 3.0 mph /  4.8 km/h 98 % 0.04 in /  1.02 mm
12:32 46.0 °F /  7.8 °C 45.5 °F /  7.5 °C 30.42 in /  1030 hPa Calm   3.0 mph /  4.8 km/h 98 % 0.04 in /  1.02 mm
12:37 46.2 °F /  7.9 °C 45.7 °F /  7.6 °C 30.41 in /  1029.7 hPa Calm   2.0 mph /  3.2 km/h 98 % 0.03 in /  0.76 mm
12:42 46.4 °F /  8 °C 45.9 °F /  7.7 °C 30.41 in /  1029.7 hPa NW 2.0 mph /  3.2 km/h 2.0 mph /  3.2 km/h 98 % 0.01 in /  0.25 mm
12:47 46.6 °F /  8.1 °C 46.0 °F /  7.8 °C 30.40 in /  1029.3 hPa Calm   3.0 mph /  4.8 km/h 98 % 0.00 in /  0 mm
12:52 46.8 °F /  8.2 °C 46.2 °F /  7.9 °C 30.40 in /  1029.3 hPa Calm   3.0 mph /  4.8 km/h 98 % 0.00 in /  0 mm
12:57 46.8 °F /  8.2 °C 46.2 °F /  7.9 °C 30.40 in /  1029.3 hPa NNW 1.0 mph /  1.6 km/h 3.0 mph /  4.8 km/h 98 % 0.00 in /  0 mm
13:02 46.9 °F /  8.3 °C 46.4 °F /  8 °C 30.39 in /  1029 hPa NW 1.0 mph /  1.6 km/h 3.0 mph /  4.8 km/h 98 % 0.00 in /  0 mm
13:07 47.1 °F /  8.4 °C 46.6 °F /  8.1 °C 30.39 in /  1029 hPa Calm   3.0 mph /  4.8 km/h 98 % 0.00 in /  0 mm
13:12 47.1 °F /  8.4 °C 46.6 °F /  8.1 °C 30.38 in /  1028.7 hPa NE 1.0 mph /  1.6 km/h 3.0 mph /  4.8 km/h 98 % 0.00 in /  0 mm
13:17 47.3 °F /  8.5 °C 46.8 °F /  8.2 °C 30.38 in /  1028.7 hPa Calm   3.0 mph /  4.8 km/h 98 % 0.00 in /  0 mm
13:22 47.5 °F /  8.6 °C 46.9 °F /  8.3 °C 30.38 in /  1028.7 hPa Calm   3.0 mph /  4.8 km/h 98 % 0.00 in /  0 mm
13:27 47.5 °F /  8.6 °C 46.9 °F /  8.3 °C 30.38 in /  1028.7 hPa North 1.0 mph /  1.6 km/h 4.0 mph /  6.4 km/h 98 % 0.00 in /  0 mm
13:32 47.7 °F /  8.7 °C 47.1 °F /  8.4 °C 30.38 in /  1028.7 hPa NNW 1.0 mph /  1.6 km/h 4.0 mph /  6.4 km/h 98 % 0.00 in /  0 mm
13:37 47.8 °F /  8.8 °C 47.3 °F /  8.5 °C 30.38 in /  1028.7 hPa NNE 1.0 mph /  1.6 km/h 4.0 mph /  6.4 km/h 98 % 0.00 in /  0 mm
13:42 48.4 °F /  9.1 °C 47.8 °F /  8.8 °C 30.38 in /  1028.7 hPa North 2.0 mph /  3.2 km/h 4.0 mph /  6.4 km/h 98 % 0.00 in /  0 mm
13:47 48.4 °F /  9.1 °C 47.8 °F /  8.8 °C 30.38 in /  1028.7 hPa Calm   4.0 mph /  6.4 km/h 98 % 0.00 in /  0 mm
13:52 48.6 °F /  9.2 °C 48.0 °F /  8.9 °C 30.37 in /  1028.3 hPa North 1.0 mph /  1.6 km/h 4.0 mph /  6.4 km/h 98 % 0.00 in /  0 mm
13:57 48.6 °F /  9.2 °C 48.0 °F /  8.9 °C 30.38 in /  1028.7 hPa North 1.0 mph /  1.6 km/h 3.0 mph /  4.8 km/h 98 % 0.00 in /  0 mm
14:02 48.6 °F /  9.2 °C 48.0 °F /  8.9 °C 30.38 in /  1028.7 hPa North 1.0 mph /  1.6 km/h 3.0 mph /  4.8 km/h 98 % 0.00 in /  0 mm
14:07 48.6 °F /  9.2 °C 48.0 °F /  8.9 °C 30.38 in /  1028.7 hPa NE 2.0 mph /  3.2 km/h 3.0 mph /  4.8 km/h 98 % 0.00 in /  0 mm
14:12 48.4 °F /  9.1 °C 47.5 °F /  8.6 °C 30.37 in /  1028.3 hPa NW 1.0 mph /  1.6 km/h 5.0 mph /  8 km/h 97 % 0.00 in /  0 mm
14:17 48.6 °F /  9.2 °C 48.0 °F /  8.9 °C 30.37 in /  1028.3 hPa Calm   5.0 mph /  8 km/h 98 % 0.00 in /  0 mm
14:22 48.7 °F /  9.3 °C 48.2 °F /  9 °C 30.37 in /  1028.3 hPa NNW 1.0 mph /  1.6 km/h 5.0 mph /  8 km/h 98 % 0.00 in /  0 mm
14:27 48.6 °F /  9.2 °C 47.7 °F /  8.7 °C 30.37 in /  1028.3 hPa Calm   4.0 mph /  6.4 km/h 97 % 0.00 in /  0 mm
14:32 48.6 °F /  9.2 °C 47.7 °F /  8.7 °C 30.36 in /  1028 hPa NNW 3.0 mph /  4.8 km/h 5.0 mph /  8 km/h 97 % 0.00 in /  0 mm
14:37 48.7 °F /  9.3 °C 48.2 °F /  9 °C 30.36 in /  1028 hPa ENE 1.0 mph /  1.6 km/h 5.0 mph /  8 km/h 98 % 0.00 in /  0 mm
14:40 48.9 °F /  9.4 °C 48.4 °F /  9.1 °C 30.35 in /  1027.7 hPa Calm   5.0 mph /  8 km/h 98 % 0.00 in /  0 mm
14:45 49.3 °F /  9.6 °C 48.4 °F /  9.1 °C 30.35 in /  1027.7 hPa NW 2.0 mph /  3.2 km/h 4.0 mph /  6.4 km/h 97 % 0.00 in /  0 mm
14:50 48.9 °F /  9.4 °C 48.0 °F /  8.9 °C 30.35 in /  1027.7 hPa ENE 2.0 mph /  3.2 km/h 5.0 mph /  8 km/h 97 % 0.00 in /  0 mm
14:55 48.9 °F /  9.4 °C 48.0 °F /  8.9 °C 30.36 in /  1028 hPa Calm   5.0 mph /  8 km/h 97 % 0.00 in /  0 mm
15:00 49.3 °F /  9.6 °C 48.7 °F /  9.3 °C 30.35 in /  1027.7 hPa WNW 1.0 mph /  1.6 km/h 5.0 mph /  8 km/h 98 % 0.00 in /  0 mm
15:05 49.3 °F /  9.6 °C 48.4 °F /  9.1 °C 30.35 in /  1027.7 hPa NE 2.0 mph /  3.2 km/h 5.0 mph /  8 km/h 97 % 0.00 in /  0 mm
15:10 49.6 °F /  9.8 °C 48.7 °F /  9.3 °C 30.35 in /  1027.7 hPa Calm   4.0 mph /  6.4 km/h 97 % 0.00 in /  0 mm
15:15 49.6 °F /  9.8 °C 48.7 °F /  9.3 °C 30.35 in /  1027.7 hPa North 2.0 mph /  3.2 km/h 5.0 mph /  8 km/h 97 % 0.00 in /  0 mm
15:20 49.6 °F /  9.8 °C 48.7 °F /  9.3 °C 30.35 in /  1027.7 hPa ENE 2.0 mph /  3.2 km/h 5.0 mph /  8 km/h 97 % 0.00 in /  0 mm
15:26 49.8 °F /  9.9 °C 48.9 °F /  9.4 °C 30.34 in /  1027.3 hPa NNW 1.0 mph /  1.6 km/h 5.0 mph /  8 km/h 97 % 0.00 in /  0 mm
15:31 50.2 °F /  10.1 °C 49.3 °F /  9.6 °C 30.34 in /  1027.3 hPa Calm   5.0 mph /  8 km/h 97 % 0.00 in /  0 mm
15:36 50.0 °F /  10 °C 49.1 °F /  9.5 °C 30.34 in /  1027.3 hPa ENE 2.0 mph /  3.2 km/h 5.0 mph /  8 km/h 97 % 0.00 in /  0 mm
15:41 50.0 °F /  10 °C 48.9 °F /  9.4 °C 30.35 in /  1027.7 hPa Calm   5.0 mph /  8 km/h 96 % 0.00 in /  0 mm
15:46 50.0 °F /  10 °C 49.1 °F /  9.5 °C 30.34 in /  1027.3 hPa NW 1.0 mph /  1.6 km/h 5.0 mph /  8 km/h 97 % 0.00 in /  0 mm
15:51 50.2 °F /  10.1 °C 49.1 °F /  9.5 °C 30.34 in /  1027.3 hPa Calm   5.0 mph /  8 km/h 96 % 0.00 in /  0 mm
15:56 50.2 °F /  10.1 °C 49.1 °F /  9.5 °C 30.34 in /  1027.3 hPa ESE 3.0 mph /  4.8 km/h 5.0 mph /  8 km/h 96 % 0.00 in /  0 mm
16:01 50.2 °F /  10.1 °C 49.1 °F /  9.5 °C 30.34 in /  1027.3 hPa North 1.0 mph /  1.6 km/h 4.0 mph /  6.4 km/h 96 % 0.00 in /  0 mm
16:06 50.2 °F /  10.1 °C 49.1 °F /  9.5 °C 30.34 in /  1027.3 hPa Calm   4.0 mph /  6.4 km/h 96 % 0.00 in /  0 mm
16:11 50.2 °F /  10.1 °C 49.1 °F /  9.5 °C 30.35 in /  1027.7 hPa Calm   4.0 mph /  6.4 km/h 96 % 0.00 in /  0 mm
16:16 50.2 °F /  10.1 °C 49.1 °F /  9.5 °C 30.35 in /  1027.7 hPa Calm   3.0 mph /  4.8 km/h 96 % 0.00 in /  0 mm
16:21 50.4 °F /  10.2 °C 49.3 °F /  9.6 °C 30.35 in /  1027.7 hPa Calm   3.0 mph /  4.8 km/h 96 % 0.00 in /  0 mm
16:26 50.4 °F /  10.2 °C 49.3 °F /  9.6 °C 30.35 in /  1027.7 hPa NW 1.0 mph /  1.6 km/h 3.0 mph /  4.8 km/h 96 % 0.00 in /  0 mm
16:31 50.4 °F /  10.2 °C 49.3 °F /  9.6 °C 30.36 in /  1028 hPa Calm   4.0 mph /  6.4 km/h 96 % 0.00 in /  0 mm
16:36 50.4 °F /  10.2 °C 49.3 °F /  9.6 °C 30.36 in /  1028 hPa ENE 1.0 mph /  1.6 km/h 4.0 mph /  6.4 km/h 96 % 0.00 in /  0 mm
16:41 50.4 °F /  10.2 °C 49.3 °F /  9.6 °C 30.35 in /  1027.7 hPa NE 1.0 mph /  1.6 km/h 4.0 mph /  6.4 km/h 96 % 0.00 in /  0 mm
16:46 50.4 °F /  10.2 °C 49.3 °F /  9.6 °C 30.35 in /  1027.7 hPa NW 4.0 mph /  6.4 km/h 4.0 mph /  6.4 km/h 96 % 0.00 in /  0 mm
16:51 50.4 °F /  10.2 °C 49.5 °F /  9.7 °C 30.35 in /  1027.7 hPa Calm   5.0 mph /  8 km/h 97 % 0.00 in /  0 mm
16:56 50.4 °F /  10.2 °C 49.5 °F /  9.7 °C 30.35 in /  1027.7 hPa North 1.0 mph /  1.6 km/h 5.0 mph /  8 km/h 97 % 0.00 in /  0 mm
17:01 50.2 °F /  10.1 °C 49.3 °F /  9.6 °C 30.35 in /  1027.7 hPa Calm   5.0 mph /  8 km/h 97 % 0.00 in /  0 mm
17:06 50.2 °F /  10.1 °C 49.3 °F /  9.6 °C 30.35 in /  1027.7 hPa NW 1.0 mph /  1.6 km/h 3.0 mph /  4.8 km/h 97 % 0.00 in /  0 mm
17:11 50.2 °F /  10.1 °C 49.3 °F /  9.6 °C 30.35 in /  1027.7 hPa NNW 1.0 mph /  1.6 km/h 4.0 mph /  6.4 km/h 97 % 0.00 in /  0 mm
17:16 50.2 °F /  10.1 °C 49.3 °F /  9.6 °C 30.35 in /  1027.7 hPa Calm   4.0 mph /  6.4 km/h 97 % 0.00 in /  0 mm
17:21 50.2 °F /  10.1 °C 49.3 °F /  9.6 °C 30.35 in /  1027.7 hPa Calm   4.0 mph /  6.4 km/h 97 % 0.00 in /  0 mm
17:26 50.2 °F /  10.1 °C 49.3 °F /  9.6 °C 30.35 in /  1027.7 hPa Calm   3.0 mph /  4.8 km/h 97 % 0.00 in /  0 mm
17:31 50.2 °F /  10.1 °C 49.3 °F /  9.6 °C 30.36 in /  1028 hPa Calm   3.0 mph /  4.8 km/h 97 % 0.00 in /  0 mm
17:36 50.2 °F /  10.1 °C 49.3 °F /  9.6 °C 30.36 in /  1028 hPa NNE 1.0 mph /  1.6 km/h 3.0 mph /  4.8 km/h 97 % 0.00 in /  0 mm
17:41 50.0 °F /  10 °C 49.5 °F /  9.7 °C 30.36 in /  1028 hPa Calm   3.0 mph /  4.8 km/h 98 % 0.00 in /  0 mm
17:46 50.0 °F /  10 °C 49.5 °F /  9.7 °C 30.36 in /  1028 hPa NE 1.0 mph /  1.6 km/h 3.0 mph /  4.8 km/h 98 % 0.00 in /  0 mm
17:51 50.0 °F /  10 °C 49.5 °F /  9.7 °C 30.35 in /  1027.7 hPa ENE 1.0 mph /  1.6 km/h 3.0 mph /  4.8 km/h 98 % 0.00 in /  0 mm
17:56 50.0 °F /  10 °C 49.5 °F /  9.7 °C 30.35 in /  1027.7 hPa NNE 1.0 mph /  1.6 km/h 3.0 mph /  4.8 km/h 98 % 0.00 in /  0 mm
18:01 50.0 °F /  10 °C 49.5 °F /  9.7 °C 30.36 in /  1028 hPa North 1.0 mph /  1.6 km/h 2.0 mph /  3.2 km/h 98 % 0.00 in /  0 mm
18:06 50.0 °F /  10 °C 49.5 °F /  9.7 °C 30.36 in /  1028 hPa ENE 1.0 mph /  1.6 km/h 2.0 mph /  3.2 km/h 98 % 0.00 in /  0 mm
18:11 50.0 °F /  10 °C 49.5 °F /  9.7 °C 30.36 in /  1028 hPa Calm   2.0 mph /  3.2 km/h 98 % 0.00 in /  0 mm
18:16 50.0 °F /  10 °C 49.5 °F /  9.7 °C 30.36 in /  1028 hPa NE 1.0 mph /  1.6 km/h 3.0 mph /  4.8 km/h 98 % 0.00 in /  0 mm
18:21 50.0 °F /  10 °C 49.5 °F /  9.7 °C 30.36 in /  1028 hPa Calm   3.0 mph /  4.8 km/h 98 % 0.00 in /  0 mm
18:26 50.0 °F /  10 °C 49.5 °F /  9.7 °C 30.35 in /  1027.7 hPa North 1.0 mph /  1.6 km/h 3.0 mph /  4.8 km/h 98 % 0.00 in /  0 mm
18:31 50.0 °F /  10 °C 49.5 °F /  9.7 °C 30.35 in /  1027.7 hPa ENE 2.0 mph /  3.2 km/h 3.0 mph /  4.8 km/h 98 % 0.00 in /  0 mm
18:36 50.0 °F /  10 °C 49.5 °F /  9.7 °C 30.35 in /  1027.7 hPa ENE 1.0 mph /  1.6 km/h 3.0 mph /  4.8 km/h 98 % 0.00 in /  0 mm
18:41 50.0 °F /  10 °C 49.5 °F /  9.7 °C 30.35 in /  1027.7 hPa Calm   3.0 mph /  4.8 km/h 98 % 0.00 in /  0 mm
18:46 50.0 °F /  10 °C 49.5 °F /  9.7 °C 30.35 in /  1027.7 hPa Calm   3.0 mph /  4.8 km/h 98 % 0.00 in /  0 mm
18:51 50.0 °F /  10 °C 49.5 °F /  9.7 °C 30.35 in /  1027.7 hPa Calm   3.0 mph /  4.8 km/h 98 % 0.00 in /  0 mm
18:56 50.2 °F /  10.1 °C 49.6 °F /  9.8 °C 30.35 in /  1027.7 hPa Calm   3.0 mph /  4.8 km/h 98 % 0.00 in /  0 mm
19:01 50.2 °F /  10.1 °C 49.6 °F /  9.8 °C 30.35 in /  1027.7 hPa Calm   2.0 mph /  3.2 km/h 98 % 0.00 in /  0 mm
19:06 50.2 °F /  10.1 °C 49.6 °F /  9.8 °C 30.35 in /  1027.7 hPa North 1.0 mph /  1.6 km/h 2.0 mph /  3.2 km/h 98 % 0.00 in /  0 mm
19:11 50.2 °F /  10.1 °C 49.8 °F /  9.9 °C 30.36 in /  1028 hPa Calm   2.0 mph /  3.2 km/h 99 % 0.00 in /  0 mm
19:16 50.2 °F /  10.1 °C 49.8 °F /  9.9 °C 30.35 in /  1027.7 hPa ENE 1.0 mph /  1.6 km/h 2.0 mph /  3.2 km/h 99 % 0.00 in /  0 mm
19:21 50.2 °F /  10.1 °C 49.8 °F /  9.9 °C 30.35 in /  1027.7 hPa East 1.0 mph /  1.6 km/h 2.0 mph /  3.2 km/h 99 % 0.00 in /  0 mm
19:26 50.2 °F /  10.1 °C 49.8 °F /  9.9 °C 30.35 in /  1027.7 hPa Calm   3.0 mph /  4.8 km/h 99 % 0.00 in /  0 mm
19:31 50.2 °F /  10.1 °C 49.8 °F /  9.9 °C 30.36 in /  1028 hPa ENE 1.0 mph /  1.6 km/h 3.0 mph /  4.8 km/h 99 % 0.00 in /  0 mm
19:36 50.2 °F /  10.1 °C 49.8 °F /  9.9 °C 30.35 in /  1027.7 hPa Calm   3.0 mph /  4.8 km/h 99 % 0.00 in /  0 mm
19:41 50.4 °F /  10.2 °C 50.0 °F /  10 °C 30.35 in /  1027.7 hPa ESE 1.0 mph /  1.6 km/h 2.0 mph /  3.2 km/h 99 % 0.00 in /  0 mm
19:46 50.4 °F /  10.2 °C 50.0 °F /  10 °C 30.35 in /  1027.7 hPa Calm   2.0 mph /  3.2 km/h 99 % 0.00 in /  0 mm
19:51 50.4 °F /  10.2 °C 50.0 °F /  10 °C 30.36 in /  1028 hPa Calm   2.0 mph /  3.2 km/h 99 % 0.00 in /  0 mm
19:56 50.4 °F /  10.2 °C 50.0 °F /  10 °C 30.36 in /  1028 hPa North 1.0 mph /  1.6 km/h 2.0 mph /  3.2 km/h 99 % 0.00 in /  0 mm
20:01 50.4 °F /  10.2 °C 50.0 °F /  10 °C 30.36 in /  1028 hPa Calm   2.0 mph /  3.2 km/h 99 % 0.00 in /  0 mm
20:06 50.4 °F /  10.2 °C 50.0 °F /  10 °C 30.36 in /  1028 hPa Calm   2.0 mph /  3.2 km/h 99 % 0.00 in /  0 mm
20:11 50.4 °F /  10.2 °C 50.0 °F /  10 °C 30.35 in /  1027.7 hPa NW 1.0 mph /  1.6 km/h 2.0 mph /  3.2 km/h 99 % 0.00 in /  0 mm
20:16 50.4 °F /  10.2 °C 50.0 °F /  10 °C 30.35 in /  1027.7 hPa Calm   2.0 mph /  3.2 km/h 99 % 0.00 in /  0 mm
20:21 50.4 °F /  10.2 °C 50.0 °F /  10 °C 30.36 in /  1028 hPa Calm   2.0 mph /  3.2 km/h 99 % 0.00 in /  0 mm
20:26 50.4 °F /  10.2 °C 50.0 °F /  10 °C 30.36 in /  1028 hPa Calm   2.0 mph /  3.2 km/h 99 % 0.00 in /  0 mm
20:31 50.4 °F /  10.2 °C 50.0 °F /  10 °C 30.37 in /  1028.3 hPa Calm   2.0 mph /  3.2 km/h 99 % 0.00 in /  0 mm
20:36 50.4 °F /  10.2 °C 50.0 °F /  10 °C 30.37 in /  1028.3 hPa NNW 1.0 mph /  1.6 km/h 1.0 mph /  1.6 km/h 99 % 0.00 in /  0 mm
20:41 50.5 °F /  10.3 °C 50.2 °F /  10.1 °C 30.36 in /  1028 hPa Calm   2.0 mph /  3.2 km/h 99 % 0.00 in /  0 mm
20:46 50.5 °F /  10.3 °C 50.2 °F /  10.1 °C 30.36 in /  1028 hPa Calm   2.0 mph /  3.2 km/h 99 % 0.00 in /  0 mm
20:51 50.5 °F /  10.3 °C 50.2 °F /  10.1 °C 30.37 in /  1028.3 hPa Calm   2.0 mph /  3.2 km/h 99 % 0.00 in /  0 mm
20:56 50.5 °F /  10.3 °C 50.2 °F /  10.1 °C 30.37 in /  1028.3 hPa Calm   1.0 mph /  1.6 km/h 99 % 0.00 in /  0 mm
21:01 50.5 °F /  10.3 °C 50.2 °F /  10.1 °C 30.38 in /  1028.7 hPa NW 1.0 mph /  1.6 km/h 1.0 mph /  1.6 km/h 99 % 0.00 in /  0 mm
21:06 50.5 °F /  10.3 °C 50.2 °F /  10.1 °C 30.38 in /  1028.7 hPa NNW 1.0 mph /  1.6 km/h 2.0 mph /  3.2 km/h 99 % 0.00 in /  0 mm
21:11 50.5 °F /  10.3 °C 50.2 °F /  10.1 °C 30.38 in /  1028.7 hPa Calm   2.0 mph /  3.2 km/h 99 % 0.00 in /  0 mm
21:16 50.7 °F /  10.4 °C 50.4 °F /  10.2 °C 30.38 in /  1028.7 hPa Calm   2.0 mph /  3.2 km/h 99 % 0.01 in /  0.25 mm
21:21 50.7 °F /  10.4 °C 50.4 °F /  10.2 °C 30.37 in /  1028.3 hPa Calm   1.0 mph /  1.6 km/h 99 % 0.01 in /  0.25 mm
21:26 50.7 °F /  10.4 °C 50.4 °F /  10.2 °C 30.37 in /  1028.3 hPa Calm   1.0 mph /  1.6 km/h 99 % 0.01 in /  0.25 mm
21:31 50.7 °F /  10.4 °C 50.4 °F /  10.2 °C 30.37 in /  1028.3 hPa Calm   1.0 mph /  1.6 km/h 99 % 0.01 in /  0.25 mm
21:36 50.7 °F /  10.4 °C 50.4 °F /  10.2 °C 30.37 in /  1028.3 hPa NNE 1.0 mph /  1.6 km/h 1.0 mph /  1.6 km/h 99 % 0.01 in /  0.25 mm
21:41 50.7 °F /  10.4 °C 50.4 °F /  10.2 °C 30.37 in /  1028.3 hPa North 1.0 mph /  1.6 km/h 2.0 mph /  3.2 km/h 99 % 0.01 in /  0.25 mm
21:46 50.7 °F /  10.4 °C 50.4 °F /  10.2 °C 30.37 in /  1028.3 hPa ENE 1.0 mph /  1.6 km/h 2.0 mph /  3.2 km/h 99 % 0.01 in /  0.25 mm
21:51 50.7 °F /  10.4 °C 50.4 °F /  10.2 °C 30.36 in /  1028 hPa Calm   2.0 mph /  3.2 km/h 99 % 0.01 in /  0.25 mm
21:56 50.7 °F /  10.4 °C 50.4 °F /  10.2 °C 30.36 in /  1028 hPa Calm   2.0 mph /  3.2 km/h 99 % 0.01 in /  0.25 mm
22:01 50.9 °F /  10.5 °C 50.5 °F /  10.3 °C 30.36 in /  1028 hPa Calm   2.0 mph /  3.2 km/h 99 % 0.01 in /  0.25 mm
22:06 50.9 °F /  10.5 °C 50.5 °F /  10.3 °C 30.36 in /  1028 hPa Calm   2.0 mph /  3.2 km/h 99 % 0.01 in /  0.25 mm
22:11 50.9 °F /  10.5 °C 50.5 °F /  10.3 °C 30.35 in /  1027.7 hPa Calm   2.0 mph /  3.2 km/h 99 % 0.01 in /  0.25 mm
22:16 50.9 °F /  10.5 °C 50.5 °F /  10.3 °C 30.35 in /  1027.7 hPa ENE 2.0 mph /  3.2 km/h 2.0 mph /  3.2 km/h 99 % 0.00 in /  0 mm
22:21 50.9 °F /  10.5 °C 50.5 °F /  10.3 °C 30.35 in /  1027.7 hPa Calm   4.0 mph /  6.4 km/h 99 % 0.00 in /  0 mm
22:26 50.9 °F /  10.5 °C 50.5 °F /  10.3 °C 30.36 in /  1028 hPa Calm   4.0 mph /  6.4 km/h 99 % 0.00 in /  0 mm
22:31 51.1 °F /  10.6 °C 50.7 °F /  10.4 °C 30.36 in /  1028 hPa Calm   4.0 mph /  6.4 km/h 99 % 0.00 in /  0 mm
22:36 51.1 °F /  10.6 °C 50.7 °F /  10.4 °C 30.36 in /  1028 hPa Calm   2.0 mph /  3.2 km/h 99 % 0.00 in /  0 mm
22:41 51.1 °F /  10.6 °C 50.7 °F /  10.4 °C 30.36 in /  1028 hPa Calm   2.0 mph /  3.2 km/h 99 % 0.00 in /  0 mm
22:47 51.1 °F /  10.6 °C 51.1 °F /  10.6 °C 30.36 in /  1028 hPa Calm   2.0 mph /  3.2 km/h 100 % 0.00 in /  0 mm
22:52 51.1 °F /  10.6 °C 50.7 °F /  10.4 °C 30.36 in /  1028 hPa NE 1.0 mph /  1.6 km/h 2.0 mph /  3.2 km/h 99 % 0.00 in /  0 mm
22:57 51.1 °F /  10.6 °C 50.7 °F /  10.4 °C 30.35 in /  1027.7 hPa ENE 1.0 mph /  1.6 km/h 2.0 mph /  3.2 km/h 99 % 0.00 in /  0 mm
23:02 51.1 °F /  10.6 °C 50.7 °F /  10.4 °C 30.35 in /  1027.7 hPa Calm   2.0 mph /  3.2 km/h 99 % 0.00 in /  0 mm
23:07 51.1 °F /  10.6 °C 51.1 °F /  10.6 °C 30.35 in /  1027.7 hPa Calm   2.0 mph /  3.2 km/h 100 % 0.00 in /  0 mm
23:12 51.1 °F /  10.6 °C 51.1 °F /  10.6 °C 30.35 in /  1027.7 hPa Calm   2.0 mph /  3.2 km/h 100 % 0.00 in /  0 mm
23:17 51.1 °F /  10.6 °C 51.1 °F /  10.6 °C 30.35 in /  1027.7 hPa Calm   2.0 mph /  3.2 km/h 100 % 0.00 in /  0 mm
23:22 51.1 °F /  10.6 °C 51.1 °F /  10.6 °C 30.35 in /  1027.7 hPa Calm   2.0 mph /  3.2 km/h 100 % 0.00 in /  0 mm
23:27 51.1 °F /  10.6 °C 51.1 °F /  10.6 °C 30.35 in /  1027.7 hPa Calm   1.0 mph /  1.6 km/h 100 % 0.00 in /  0 mm
23:32 51.3 °F /  10.7 °C 51.3 °F /  10.7 °C 30.35 in /  1027.7 hPa Calm   2.0 mph /  3.2 km/h 100 % 0.00 in /  0 mm
23:37 51.3 °F /  10.7 °C 51.3 °F /  10.7 °C 30.35 in /  1027.7 hPa Calm   2.0 mph /  3.2 km/h 100 % 0.00 in /  0 mm
23:42 51.3 °F /  10.7 °C 51.3 °F /  10.7 °C 30.34 in /  1027.3 hPa Calm   2.0 mph /  3.2 km/h 100 % 0.00 in /  0 mm
23:47 51.3 °F /  10.7 °C 51.3 °F /  10.7 °C 30.34 in /  1027.3 hPa Calm   2.0 mph /  3.2 km/h 100 % 0.00 in /  0 mm
23:52 51.3 °F /  10.7 °C 51.3 °F /  10.7 °C 30.34 in /  1027.3 hPa Calm   2.0 mph /  3.2 km/h 100 % 0.00 in /  0 mm
23:57 51.3 °F /  10.7 °C 51.3 °F /  10.7 °C 30.34 in /  1027.3 hPa East 2.0 mph /  3.2 km/h 2.0 mph /  3.2 km/h 100 % 0.00 in /  0 mm
Spring, Texas: Villages of Bridgestone
Compliments of Weather Underground - 3 mb

Script developed by  Jim McMurry - jmcmurry@mwt.net Adapted for the template by  Wim van der Kuil - Leuven-Template.eu

You find our weather info also at:

UK Metoffice

WeatherCloud

Weather Underground

Mid-South Weather Network

AWEKAS

Citizen Weather Observer Program (CWOP)

HAMweather, WeatherForYou, PWS Weather

Equipment we use:

Weather-station
Davis Vantage Vue

Weather-program
Meteohub

Weather-server
Debian 7.9 x86 (Guest)

Provider
DreamHost

Davis Vantage Vue

Meteohub

Debian 7.9 x86 (Guest)

DreamHost